Allen, Nebraska
Current Conditions -  °F | °C
As of 12:35 AM on Saturday 29 Nov 2014 (Local Time) from KLCG Reporting Station
Clear Clear  
Wind Chill: -5°   Ceiling: Unl
Heat Index: -2°   Visibility: 10mi
Dew Point: -3°   Wind: 6mph
Humidity: 88%   Direction: 210°SSW
Pressure: 29.54"   Gusts: NA
Location:  42.42°N, 96.85°W
Report Text: KLCG 290635Z AUTO 21005KT 10SM CLR M02/M03 A2954 RMK AO2 T10171034
Loading
Personal Weather Stations






























Interactive Weather Map New forecast layout! Learn more

10-Day Weather Forecast

Advertisements
Track Severe Weather on mobile